Time;durP1;ratioP1;P1;durP2;ratioP2;P2;SDS_P1;SDS_P2;PMS_P1;PMS_P2;Temp;Humidity;BMP_temperature;BMP_pressure;BME280_temperature;BME280_humidity;BME280_pressure;Samples;Min_cycle;Max_cycle;Signal;HPM_P1;HPM_P2
2022/07/06 00:00:01;;;;;;;1.23;1.13;;;;;;;18.35;52.72;98542.00;4949459;29;20054;-81
2022/07/06 00:02:27;;;;;;;1.55;1.45;;;;;;;18.41;53.26;98541.03;4952208;28;20094;-81
2022/07/06 00:04:54;;;;;;;1.40;1.30;;;;;;;18.44;53.19;98539.75;4947859;29;20043;-81
2022/07/06 00:07:22;;;;;;;1.40;1.30;;;;;;;18.44;54.42;98545.84;4948863;28;20051;-81
2022/07/06 00:09:49;;;;;;;1.15;1.10;;;;;;;18.51;53.88;98550.22;4946744;29;20416;-80
2022/07/06 00:12:16;;;;;;;1.27;1.20;;;;;;;18.54;53.14;98545.25;4948763;29;20082;-80
2022/07/06 00:14:42;;;;;;;1.60;1.50;;;;;;;18.52;53.42;98546.50;4949484;29;20047;-81
2022/07/06 00:17:09;;;;;;;1.15;1.15;;;;;;;18.57;54.17;98554.56;4943580;29;20079;-81
2022/07/06 00:19:36;;;;;;;1.30;1.20;;;;;;;18.54;53.71;98555.88;4951073;29;20057;-81
2022/07/06 00:22:03;;;;;;;1.30;1.20;;;;;;;18.50;54.83;98545.94;4951924;29;20085;-81
2022/07/06 00:24:29;;;;;;;1.20;1.10;;;;;;;18.51;55.19;98555.53;4948883;29;20051;-81
2022/07/06 00:27:04;;;;;;;1.25;1.23;;;;;;;18.45;54.96;98558.09;4947581;28;20066;-82
2022/07/06 00:29:31;;;;;;;1.50;1.40;;;;;;;18.37;54.07;98555.84;4945517;29;20043;-81
2022/07/06 00:31:58;;;;;;;1.70;1.60;;;;;;;18.28;54.24;98562.56;4949405;29;20511;-81
2022/07/06 00:34:25;;;;;;;1.50;1.40;;;;;;;18.27;53.83;98560.94;4946853;28;20444;-81
2022/07/06 00:36:51;;;;;;;1.75;1.65;;;;;;;18.11;55.06;98557.22;4940252;29;20051;-81
2022/07/06 00:39:19;;;;;;;2.25;1.40;;;;;;;18.00;54.83;98560.72;4952697;28;20051;-81
2022/07/06 00:41:46;;;;;;;3.13;1.70;;;;;;;17.91;56.12;98557.63;4937913;29;20122;-81
2022/07/06 00:44:13;;;;;;;2.20;2.00;;;;;;;17.85;54.58;98569.16;4947072;29;20090;-81
2022/07/06 00:46:39;;;;;;;1.70;1.60;;;;;;;17.78;55.08;98573.00;4946409;29;20056;-82
2022/07/06 00:50:13;;;;;;;1.60;1.50;;;;;;;17.79;56.53;98570.09;4939162;29;20063;-81
2022/07/06 00:51:53;;;;;;;1.30;1.20;;;;;;;17.92;56.31;98569.84;4949443;28;20039;-81
2022/07/06 00:54:20;;;;;;;1.55;1.45;;;;;;;17.98;55.79;98569.94;4939118;28;20043;-81
2022/07/06 00:56:46;;;;;;;1.60;1.50;;;;;;;17.91;54.47;98562.94;4939394;29;20051;-81
2022/07/06 00:59:14;;;;;;;1.67;1.58;;;;;;;17.88;55.86;98573.22;4939045;29;20036;-81
2022/07/06 01:01:40;;;;;;;2.85;1.50;;;;;;;17.82;55.32;98580.28;4941343;29;20053;-81
2022/07/06 01:04:07;;;;;;;1.90;1.50;;;;;;;17.82;56.23;98574.97;4943175;29;20121;-81
2022/07/06 01:06:34;;;;;;;1.48;1.38;;;;;;;17.85;56.63;98578.97;4950540;28;20071;-81
2022/07/06 01:09:01;;;;;;;1.50;1.40;;;;;;;17.79;56.78;98575.41;4943631;29;20047;-81
2022/07/06 01:11:28;;;;;;;1.40;1.30;;;;;;;17.85;56.97;98568.38;4935442;28;20052;-81
2022/07/06 01:13:57;;;;;;;1.08;1.08;;;;;;;17.87;56.05;98566.28;4945533;29;20067;-81
2022/07/06 01:16:24;;;;;;;1.50;1.40;;;;;;;17.88;56.56;98567.91;4947198;29;20482;-81
2022/07/06 01:18:51;;;;;;;1.20;1.10;;;;;;;17.86;57.24;98562.81;4943715;29;20043;-80
2022/07/06 01:21:17;;;;;;;1.13;1.10;;;;;;;17.87;57.38;98572.41;4947801;29;20075;-81
2022/07/06 01:23:47;;;;;;;1.13;1.10;;;;;;;17.92;57.33;98571.69;4950768;29;20086;-82
2022/07/06 01:26:19;;;;;;;1.10;1.10;;;;;;;17.92;57.60;98569.03;4945163;29;20078;-81
2022/07/06 01:28:49;;;;;;;1.83;1.73;;;;;;;17.76;57.13;98567.13;4938023;29;20047;-80
2022/07/06 01:31:26;;;;;;;1.17;1.17;;;;;;;17.77;58.33;98566.09;4949473;28;20478;-81
2022/07/06 01:33:56;;;;;;;1.40;1.30;;;;;;;17.76;58.82;98564.47;4943776;29;20764;-81
2022/07/06 01:36:23;;;;;;;1.08;1.08;;;;;;;17.84;59.98;98554.31;4952256;28;20047;-81
2022/07/06 01:38:57;;;;;;;1.40;1.30;;;;;;;17.81;59.34;98554.78;4946212;28;20054;-82
2022/07/06 01:41:25;;;;;;;1.20;1.10;;;;;;;17.83;60.33;98554.53;4950329;29;20039;-81
2022/07/06 01:43:52;;;;;;;1.40;1.30;;;;;;;17.79;60.38;98548.88;4956046;28;20063;-81
2022/07/06 01:46:19;;;;;;;1.30;1.23;;;;;;;17.76;59.57;98549.38;4949288;28;20050;-80
2022/07/06 01:48:47;;;;;;;1.30;1.20;;;;;;;17.70;60.37;98552.94;4954819;29;20443;-81
2022/07/06 01:51:14;;;;;;;1.35;1.25;;;;;;;17.69;59.72;98543.34;4951031;28;20047;-81
2022/07/06 01:53:40;;;;;;;1.50;1.40;;;;;;;17.67;60.21;98551.53;4954694;28;20047;-81
2022/07/06 01:56:07;;;;;;;1.40;1.30;;;;;;;17.68;60.16;98544.38;4951360;29;20047;-82
2022/07/06 01:58:35;;;;;;;1.60;1.50;;;;;;;17.54;60.31;98546.50;4944022;28;20126;-81
2022/07/06 02:01:13;;;;;;;1.40;1.30;;;;;;;17.41;60.50;98553.91;4950050;29;20575;-81
2022/07/06 02:03:41;;;;;;;1.20;1.20;;;;;;;17.46;61.03;98548.72;4940730;29;20086;-81
2022/07/06 02:06:08;;;;;;;1.20;1.20;;;;;;;17.45;60.85;98547.88;4964315;28;20125;-81
2022/07/06 02:08:36;;;;;;;1.55;1.45;;;;;;;17.44;60.30;98545.47;4943334;28;20051;-81
2022/07/06 02:11:05;;;;;;;1.40;1.27;;;;;;;17.47;61.20;98555.63;4950884;29;20095;-81
2022/07/06 02:13:32;;;;;;;1.25;1.25;;;;;;;17.51;60.78;98554.94;4953225;29;20043;-81
2022/07/06 02:16:00;;;;;;;1.45;1.35;;;;;;;17.47;60.59;98551.13;4954243;29;20044;-81
2022/07/06 02:18:27;;;;;;;1.90;1.80;;;;;;;17.29;60.58;98564.50;4945506;29;20082;-81
2022/07/06 02:20:54;;;;;;;1.85;1.60;;;;;;;17.19;60.42;98556.31;4954145;28;20054;-81
2022/07/06 02:23:21;;;;;;;1.92;1.83;;;;;;;17.06;60.63;98563.47;4953984;28;20047;-81
2022/07/06 02:25:47;;;;;;;1.77;1.67;;;;;;;17.10;60.19;98571.78;4951936;29;20047;-82
2022/07/06 02:28:14;;;;;;;1.60;1.50;;;;;;;17.10;60.79;98571.78;4937345;28;20151;-81
2022/07/06 02:30:41;;;;;;;1.95;1.85;;;;;;;17.07;61.33;98572.22;4949985;29;20494;-82
2022/07/06 02:33:07;;;;;;;1.90;1.80;;;;;;;17.04;62.73;98578.00;4954021;29;20055;-81
2022/07/06 02:35:34;;;;;;;1.80;1.70;;;;;;;16.99;60.60;98577.88;4944466;28;20126;-82
2022/07/06 02:38:01;;;;;;;1.60;1.50;;;;;;;17.08;61.33;98574.63;4954105;28;20051;-81
2022/07/06 02:40:27;;;;;;;1.35;1.27;;;;;;;17.19;60.77;98577.53;4947402;29;20067;-81
2022/07/06 02:42:54;;;;;;;1.50;1.40;;;;;;;17.24;61.34;98567.84;4949110;29;20078;-81
2022/07/06 02:45:21;;;;;;;1.30;1.20;;;;;;;17.31;60.98;98573.03;4952968;28;20055;-82
2022/07/06 02:47:48;;;;;;;1.50;1.40;;;;;;;17.28;60.20;98569.00;4943819;29;20050;-81
2022/07/06 02:50:14;;;;;;;2.95;1.92;;;;;;;17.05;59.13;98574.31;4965003;28;20043;-81
2022/07/06 02:52:41;;;;;;;2.30;2.10;;;;;;;16.78;59.47;98572.06;4953751;29;20510;-81
2022/07/06 02:55:08;;;;;;;1.60;1.50;;;;;;;16.86;60.30;98570.94;4951435;29;20039;-81
2022/07/06 02:57:35;;;;;;;1.52;1.25;;;;;;;16.96;61.57;98575.66;4951756;28;20389;-82
2022/07/06 03:00:04;;;;;;;1.42;1.33;;;;;;;16.95;59.54;98563.44;4953478;28;20607;-82
2022/07/06 03:02:31;;;;;;;1.95;1.85;;;;;;;16.82;59.93;98578.53;4945311;29;20425;-82
2022/07/06 03:04:58;;;;;;;1.70;1.60;;;;;;;16.88;61.17;98583.94;4941015;28;20058;-81
2022/07/06 03:07:25;;;;;;;1.92;1.83;;;;;;;16.84;59.77;98583.59;4937163;29;20078;-81
2022/07/06 03:09:51;;;;;;;1.27;1.20;;;;;;;17.01;60.56;98573.13;4944973;29;20094;-82
2022/07/06 03:12:18;;;;;;;1.50;1.40;;;;;;;17.10;61.26;98582.38;4953568;29;20043;-81
2022/07/06 03:14:45;;;;;;;1.50;1.40;;;;;;;17.19;61.43;98586.28;4936545;29;20075;-82
2022/07/06 03:17:11;;;;;;;1.05;1.05;;;;;;;17.27;61.27;98591.25;4944090;28;20735;-82
2022/07/06 03:19:38;;;;;;;1.40;1.30;;;;;;;17.24;60.71;98590.91;4938872;28;20476;-82
2022/07/06 03:22:05;;;;;;;1.80;1.70;;;;;;;17.18;59.33;98589.16;4967691;28;20047;-82
2022/07/06 03:24:32;;;;;;;2.00;1.90;;;;;;;16.89;61.02;98596.16;4944340;28;20039;-82
2022/07/06 03:27:01;;;;;;;1.98;1.80;;;;;;;16.80;61.24;98599.16;4953454;28;20122;-83
2022/07/06 03:29:27;;;;;;;1.60;1.50;;;;;;;16.89;61.31;98586.38;4934481;29;20075;-82
2022/07/06 03:31:54;;;;;;;1.70;1.60;;;;;;;16.84;59.52;98594.19;4949678;29;20412;-82
2022/07/06 03:34:21;;;;;;;2.17;2.00;;;;;;;16.72;60.08;98599.47;4945227;29;20090;-82
2022/07/06 03:36:47;;;;;;;1.75;1.65;;;;;;;16.85;61.51;98590.50;4947752;29;20047;-81
2022/07/06 03:39:14;;;;;;;1.88;1.45;;;;;;;16.97;61.69;98583.41;4950845;28;20051;-81
2022/07/06 03:41:41;;;;;;;1.67;1.58;;;;;;;16.92;61.53;98582.47;4963799;28;20102;-82
2022/07/06 03:44:07;;;;;;;1.50;1.40;;;;;;;17.03;61.63;98589.59;4959618;28;20055;-81
2022/07/06 03:46:34;;;;;;;2.08;1.90;;;;;;;16.97;59.64;98587.88;4955300;28;20055;-81
2022/07/06 03:49:01;;;;;;;1.83;1.73;;;;;;;16.74;60.57;98592.13;4940604;29;20149;-81
2022/07/06 03:51:27;;;;;;;3.15;2.08;;;;;;;16.62;60.19;98585.94;4952579;28;20094;-81
2022/07/06 03:53:54;;;;;;;2.28;1.95;;;;;;;16.63;61.23;98587.56;4944565;29;20131;-82
2022/07/06 03:56:32;;;;;;;1.80;1.70;;;;;;;16.65;61.66;98590.78;4941503;28;20102;-82
2022/07/06 03:59:01;;;;;;;2.10;2.00;;;;;;;16.52;61.80;98586.47;4957316;28;20075;-83
2022/07/06 04:01:29;;;;;;;2.20;2.10;;;;;;;16.43;61.48;98600.25;4953030;28;20483;-82
2022/07/06 04:03:56;;;;;;;2.00;1.90;;;;;;;16.35;61.57;98608.53;4947206;28;20488;-83
2022/07/06 04:06:23;;;;;;;2.30;2.10;;;;;;;16.31;62.14;98606.34;4946108;29;20077;-83
2022/07/06 04:08:50;;;;;;;2.20;2.10;;;;;;;16.24;62.86;98600.28;4948968;28;20090;-83
2022/07/06 04:11:17;;;;;;;2.00;1.90;;;;;;;16.37;63.90;98599.31;4952920;29;20079;-81
2022/07/06 04:13:43;;;;;;;1.83;1.73;;;;;;;16.40;62.73;98601.53;4952031;29;20067;-81
2022/07/06 04:16:10;;;;;;;1.90;1.80;;;;;;;16.38;63.15;98608.09;4948376;28;20047;-82
2022/07/06 04:18:37;;;;;;;2.35;1.77;;;;;;;16.44;63.44;98604.53;4941427;29;20052;-83
2022/07/06 04:21:04;;;;;;;1.55;1.45;;;;;;;16.54;63.93;98610.09;4950300;28;20047;-82
2022/07/06 04:23:31;;;;;;;1.40;1.30;;;;;;;16.71;63.66;98611.09;4960526;28;20499;-82
2022/07/06 04:25:57;;;;;;;2.85;1.60;;;;;;;16.72;62.03;98619.84;4949037;29;20523;-82
2022/07/06 04:28:24;;;;;;;1.67;1.58;;;;;;;16.69;62.20;98622.94;4945153;29;20047;-81
2022/07/06 04:30:52;;;;;;;1.70;1.58;;;;;;;16.80;63.72;98627.47;4942642;29;20488;-82
2022/07/06 04:33:18;;;;;;;2.17;1.98;;;;;;;16.75;61.13;98630.00;4943899;29;20036;-81
2022/07/06 04:35:45;;;;;;;1.55;1.45;;;;;;;16.82;63.56;98628.84;4937192;29;20645;-81
2022/07/06 04:38:12;;;;;;;1.40;1.30;;;;;;;16.97;62.87;98635.56;4948296;29;20454;-81
2022/07/06 04:40:39;;;;;;;1.50;1.40;;;;;;;16.97;62.09;98640.84;4948950;29;20047;-82
2022/07/06 04:43:05;;;;;;;1.23;1.20;;;;;;;17.09;64.11;98641.69;4937484;29;20377;-82
2022/07/06 04:45:32;;;;;;;1.70;1.60;;;;;;;17.08;61.80;98648.84;4947573;28;20075;-81
2022/07/06 04:47:59;;;;;;;1.55;1.30;;;;;;;17.19;62.71;98643.78;4947844;29;20074;-81
2022/07/06 04:50:26;;;;;;;2.65;1.60;;;;;;;17.22;62.71;98638.84;4946722;29;20044;-82
2022/07/06 04:52:52;;;;;;;2.10;1.80;;;;;;;17.19;62.03;98646.44;4952967;28;20051;-81
2022/07/06 04:55:19;;;;;;;1.73;1.63;;;;;;;17.22;63.50;98652.09;4950956;28;21458;-82
2022/07/06 04:57:46;;;;;;;1.30;1.20;;;;;;;17.31;64.39;98639.31;4955845;28;20067;-81
2022/07/06 05:00:13;;;;;;;1.40;1.30;;;;;;;17.39;64.86;98647.75;4955321;28;20071;-81
2022/07/06 05:02:40;;;;;;;1.60;1.50;;;;;;;17.44;64.35;98656.84;4950818;28;20051;-81
2022/07/06 05:05:09;;;;;;;1.45;1.35;;;;;;;17.52;62.75;98648.56;4951261;29;20091;-81
2022/07/06 05:07:39;;;;;;;1.63;1.50;;;;;;;17.58;60.81;98663.53;4951964;29;20557;-81
2022/07/06 05:10:09;;;;;;;1.43;1.33;;;;;;;17.58;61.89;98668.84;4967079;28;20048;-80
2022/07/06 05:12:36;;;;;;;1.50;1.40;;;;;;;17.70;61.89;98671.50;4953460;29;20369;-81
2022/07/06 05:15:03;;;;;;;1.48;1.38;;;;;;;17.86;63.18;98668.94;4951489;29;20106;-80
2022/07/06 05:17:30;;;;;;;1.60;1.50;;;;;;;17.91;59.99;98674.38;4953835;29;20554;-80
2022/07/06 05:19:58;;;;;;;2.67;1.50;;;;;;;18.05;62.64;98674.13;4949852;29;20055;-81
2022/07/06 05:22:24;;;;;;;1.67;1.58;;;;;;;18.04;59.96;98669.84;4952833;28;20054;-80
2022/07/06 05:24:51;;;;;;;1.60;1.50;;;;;;;18.27;61.60;98672.47;4947094;28;20111;-80
2022/07/06 05:27:19;;;;;;;1.60;1.50;;;;;;;18.32;60.15;98661.94;4954504;28;20036;-80
2022/07/06 05:29:46;;;;;;;1.83;1.73;;;;;;;18.29;59.88;98673.06;4947606;29;20102;-81
2022/07/06 05:32:12;;;;;;;1.85;1.40;;;;;;;18.52;59.59;98679.31;4944080;29;20044;-80
2022/07/06 05:34:39;;;;;;;1.50;1.40;;;;;;;18.64;60.60;98675.56;4951462;29;20043;-80
2022/07/06 05:37:06;;;;;;;1.40;1.30;;;;;;;18.70;59.29;98676.50;4952758;28;20086;-80
2022/07/06 05:39:33;;;;;;;1.20;1.20;;;;;;;18.90;62.83;98679.53;4948971;28;20106;-80
2022/07/06 05:42:00;;;;;;;1.80;1.70;;;;;;;18.86;56.07;98681.06;4948082;28;20377;-80
2022/07/06 05:44:26;;;;;;;1.80;1.70;;;;;;;19.09;57.05;98674.81;4948406;29;20082;-80
2022/07/06 05:50:11;;;;;;;1.30;1.30;;;;;;;19.35;61.04;98683.19;4947199;29;20051;-80
2022/07/06 05:52:25;;;;;;;2.90;2.03;;;;;;;19.41;52.48;98672.38;4945758;29;20090;-82
2022/07/06 05:54:52;;;;;;;1.85;1.75;;;;;;;19.48;55.82;98675.69;4942891;29;20126;-79
2022/07/06 05:57:18;;;;;;;1.70;1.60;;;;;;;19.65;56.46;98674.91;4947672;29;20063;-80
2022/07/06 05:59:45;;;;;;;1.40;1.30;;;;;;;19.88;56.81;98687.22;4947171;28;20484;-80
2022/07/06 06:02:11;;;;;;;1.50;1.40;;;;;;;20.01;56.35;98686.84;4950145;29;20043;-79
2022/07/06 06:04:39;;;;;;;1.40;1.30;;;;;;;20.15;54.55;98676.63;4941569;28;20047;-80
2022/07/06 06:07:05;;;;;;;1.30;1.20;;;;;;;20.27;57.91;98685.31;4942001;29;20036;-79
2022/07/06 06:09:32;;;;;;;1.10;1.10;;;;;;;20.48;58.21;98681.88;4949510;29;20106;-79
2022/07/06 06:11:59;;;;;;;1.40;1.30;;;;;;;20.48;51.49;98676.53;4950103;28;20391;-79
2022/07/06 06:14:25;;;;;;;1.30;1.20;;;;;;;20.63;52.34;98678.59;4946348;29;20127;-79
2022/07/06 06:16:52;;;;;;;1.30;1.30;;;;;;;20.75;50.14;98671.25;4948608;28;20066;-79
2022/07/06 06:19:18;;;;;;;1.80;1.30;;;;;;;20.79;49.36;98682.19;4939425;29;20123;-80
2022/07/06 06:21:45;;;;;;;1.60;1.50;;;;;;;20.86;49.95;98682.78;4942400;29;20044;-80
2022/07/06 06:24:12;;;;;;;1.50;1.40;;;;;;;20.94;53.06;98677.03;4946488;29;20067;-79
2022/07/06 06:26:39;;;;;;;1.65;1.55;;;;;;;21.02;50.24;98683.75;4946336;29;20043;-78
2022/07/06 06:29:06;;;;;;;1.67;1.50;;;;;;;21.18;52.06;98690.03;4943601;29;20384;-80
2022/07/06 06:31:32;;;;;;;1.50;1.40;;;;;;;21.42;53.58;98696.66;4945237;29;20130;-80
2022/07/06 06:34:06;;;;;;;1.55;1.45;;;;;;;21.54;51.56;98688.47;4948483;29;20049;-79
2022/07/06 06:36:33;;;;;;;1.63;1.40;;;;;;;21.68;48.23;98686.16;4945010;29;20141;-81
2022/07/06 06:39:00;;;;;;;1.40;1.30;;;;;;;21.72;50.05;98689.94;4945358;29;20514;-79
2022/07/06 06:41:26;;;;;;;1.63;1.52;;;;;;;21.71;46.42;98699.81;4946471;29;20412;-79
2022/07/06 06:43:53;;;;;;;1.60;1.50;;;;;;;21.92;45.69;98690.84;4943478;28;20126;-79
2022/07/06 06:46:19;;;;;;;1.60;1.40;;;;;;;21.95;46.82;98686.88;4948314;29;20114;-78
2022/07/06 06:48:46;;;;;;;1.52;1.42;;;;;;;22.03;49.51;98691.72;4946494;29;20472;-79
2022/07/06 06:51:13;;;;;;;1.30;1.20;;;;;;;22.06;46.16;98687.72;4945652;28;20044;-80
2022/07/06 06:53:40;;;;;;;1.45;1.30;;;;;;;22.14;46.77;98688.06;4942845;29;20039;-79
2022/07/06 06:56:08;;;;;;;1.48;1.30;;;;;;;22.33;47.77;98690.28;4949183;29;20047;-79
2022/07/06 06:58:35;;;;;;;1.80;1.42;;;;;;;22.39;47.01;98689.22;4944943;28;20440;-79
2022/07/06 07:01:21;;;;;;;1.13;1.13;;;;;;;22.55;44.66;98682.06;4948496;29;20047;-79
2022/07/06 07:03:51;;;;;;;1.33;1.25;;;;;;;22.82;46.38;98697.91;4946267;28;20054;-80
2022/07/06 07:06:18;;;;;;;1.20;1.10;;;;;;;22.91;48.49;98696.34;4945791;29;20130;-79
2022/07/06 07:08:46;;;;;;;1.33;1.23;;;;;;;22.92;46.27;98697.97;4963128;28;20150;-82
2022/07/06 07:11:13;;;;;;;1.10;1.10;;;;;;;23.02;46.28;98692.59;4947206;29;20090;-79
2022/07/06 07:13:40;;;;;;;1.27;1.10;;;;;;;23.09;43.47;98695.84;4947031;29;20039;-79
2022/07/06 07:16:07;;;;;;;0.93;0.93;;;;;;;23.04;45.39;98690.50;4943729;28;20083;-79
2022/07/06 07:18:34;;;;;;;1.10;1.00;;;;;;;23.01;47.25;98695.56;4949721;29;20119;-79
2022/07/06 07:21:00;;;;;;;1.02;1.00;;;;;;;22.92;46.35;98695.28;4940707;28;20043;-79
2022/07/06 07:23:27;;;;;;;1.10;1.10;;;;;;;22.90;47.88;98695.53;4943069;29;20122;-79
2022/07/06 07:25:54;;;;;;;1.10;1.10;;;;;;;23.00;49.23;98689.41;4940553;29;20123;-79
2022/07/06 07:28:20;;;;;;;1.30;1.20;;;;;;;23.10;45.72;98684.06;4945006;29;20044;-80
2022/07/06 07:30:47;;;;;;;2.50;1.48;;;;;;;23.11;41.65;98690.22;4954696;28;20046;-81
2022/07/06 07:33:14;;;;;;;1.40;1.30;;;;;;;23.36;49.35;98694.78;4944867;29;20044;-79
2022/07/06 07:35:41;;;;;;;2.25;1.13;;;;;;;23.23;45.48;98694.25;4948836;29;20051;-79
2022/07/06 07:38:08;;;;;;;1.55;1.40;;;;;;;22.96;44.38;98693.66;4947270;29;20118;-80
2022/07/06 07:40:35;;;;;;;1.45;1.35;;;;;;;22.57;44.39;98691.44;4945367;28;20090;-80
2022/07/06 07:43:02;;;;;;;1.50;1.40;;;;;;;22.37;45.05;98686.00;4949217;29;20048;-80
2022/07/06 07:45:29;;;;;;;1.88;1.30;;;;;;;22.60;44.61;98698.91;4946198;28;20111;-80
2022/07/06 07:47:55;;;;;;;1.67;1.35;;;;;;;22.88;44.98;98696.88;4948490;28;20047;-79
2022/07/06 07:50:22;;;;;;;2.55;1.58;;;;;;;23.14;44.62;98687.81;4944667;29;20098;-80
2022/07/06 07:52:49;;;;;;;2.35;1.48;;;;;;;23.07;42.05;98681.91;4949829;28;20050;-81
2022/07/06 07:55:16;;;;;;;1.10;1.10;;;;;;;23.45;42.67;98690.47;4949074;28;20079;-79
2022/07/06 07:58:02;;;;;;;1.30;1.20;;;;;;;23.55;41.99;98690.47;4960621;28;20047;-80
2022/07/06 08:00:29;;;;;;;1.33;1.25;;;;;;;23.70;43.20;98695.06;4945585;29;20082;-79
2022/07/06 08:02:56;;;;;;;1.42;1.33;;;;;;;23.73;44.12;98700.66;4951036;29;20074;-81
2022/07/06 08:05:22;;;;;;;1.70;1.40;;;;;;;23.65;40.13;98684.34;4947513;29;20055;-80
2022/07/06 08:07:49;;;;;;;1.30;1.20;;;;;;;23.55;38.19;98685.13;4952238;28;20039;-78
2022/07/06 08:10:16;;;;;;;1.90;1.25;;;;;;;23.59;40.17;98682.72;4943411;29;20043;-78
2022/07/06 08:12:42;;;;;;;1.67;1.17;;;;;;;23.73;39.15;98687.25;4941169;29;20064;-79
2022/07/06 08:15:12;;;;;;;1.10;1.10;;;;;;;23.97;39.26;98690.16;4946274;28;20062;-79
2022/07/06 08:17:39;;;;;;;1.60;1.45;;;;;;;24.00;38.26;98683.47;4947864;28;20098;-80
2022/07/06 08:20:07;;;;;;;1.60;1.40;;;;;;;23.97;39.37;98687.47;4942706;29;20081;-79
2022/07/06 08:22:37;;;;;;;1.42;1.33;;;;;;;23.94;39.41;98688.03;4951674;29;20047;-78
2022/07/06 08:25:05;;;;;;;1.50;1.40;;;;;;;23.59;41.15;98680.84;4942769;28;20043;-80
2022/07/06 08:27:40;;;;;;;2.42;1.20;;;;;;;23.83;41.55;98685.66;4946600;29;20050;-80
2022/07/06 08:30:08;;;;;;;1.92;1.40;;;;;;;23.98;42.12;98689.06;4949596;29;20043;-79
2022/07/06 08:32:42;;;;;;;1.50;1.40;;;;;;;23.99;40.10;98685.34;4952848;28;20043;-81
2022/07/06 08:35:29;;;;;;;1.48;1.38;;;;;;;24.15;40.78;98683.41;4943240;29;20499;-78
2022/07/06 08:37:56;;;;;;;1.50;1.40;;;;;;;24.21;39.26;98690.34;4948042;29;20044;-80
2022/07/06 08:40:23;;;;;;;1.52;1.30;;;;;;;24.16;37.81;98689.56;4946785;29;20075;-80
2022/07/06 08:42:54;;;;;;;2.65;1.30;;;;;;;24.09;37.42;98684.50;4944874;29;20080;-80
2022/07/06 08:45:25;;;;;;;2.50;1.55;;;;;;;23.86;37.84;98691.25;4945343;28;20115;-82
2022/07/06 08:47:54;;;;;;;;;;;;;;;23.82;38.84;98690.22;4947804;29;20125;-81
2022/07/06 08:50:21;;;;;;;3.78;1.60;;;;;;;23.91;38.51;98682.41;4949482;28;19962;-82
2022/07/06 08:52:49;;;;;;;1.30;1.20;;;;;;;23.93;38.85;98685.59;4944051;29;20055;-81
2022/07/06 08:55:17;;;;;;;2.60;1.30;;;;;;;23.96;39.46;98696.59;4949452;28;20463;-83
2022/07/06 08:57:47;;;;;;;1.90;1.10;;;;;;;24.28;38.21;98688.16;4948494;28;20092;-81
2022/07/06 09:00:16;;;;;;;1.10;1.10;;;;;;;24.20;38.02;98679.91;4943753;29;20520;-81
2022/07/06 09:02:43;;;;;;;1.33;1.23;;;;;;;24.19;37.71;98684.47;4948134;28;20429;-82
2022/07/06 09:05:16;;;;;;;1.23;1.10;;;;;;;24.35;37.83;98685.25;4951697;29;20843;-82
2022/07/06 09:07:48;;;;;;;1.05;1.05;;;;;;;24.60;38.72;98689.69;4943924;29;20082;-81
2022/07/06 09:10:26;;;;;;;1.23;1.13;;;;;;;24.58;37.85;98685.66;4948872;29;20138;-81
2022/07/06 09:12:53;;;;;;;2.17;1.30;;;;;;;24.62;36.99;98684.84;4947314;29;20082;-81
2022/07/06 09:15:27;;;;;;;1.52;1.42;;;;;;;24.53;37.14;98691.88;4943820;29;20083;-81
2022/07/06 09:17:57;;;;;;;1.75;1.65;;;;;;;24.29;37.29;98686.31;4945111;29;20039;-81
2022/07/06 09:20:24;;;;;;;2.20;1.80;;;;;;;24.00;38.86;98672.75;4949932;29;20049;-82
2022/07/06 09:22:59;;;;;;;1.67;1.40;;;;;;;24.14;38.30;98681.81;4950368;28;20047;-81
2022/07/06 09:25:27;;;;;;;1.02;1.02;;;;;;;24.32;39.43;98691.13;4961131;28;20087;-82
2022/07/06 09:27:56;;;;;;;1.42;1.25;;;;;;;24.58;36.56;98691.00;4947309;28;20047;-82
2022/07/06 09:30:24;;;;;;;1.50;1.40;;;;;;;24.52;36.21;98699.09;4950742;28;20047;-82
2022/07/06 09:32:54;;;;;;;1.17;1.13;;;;;;;24.79;38.68;98687.94;4941653;29;20075;-80
2022/07/06 09:35:38;;;;;;;3.20;1.33;;;;;;;24.85;36.71;98682.56;4945586;29;20503;-81
2022/07/06 09:38:12;;;;;;;1.77;1.50;;;;;;;24.89;35.64;98691.63;4945212;28;20094;-83
2022/07/06 09:40:42;;;;;;;1.90;1.70;;;;;;;24.87;37.32;98689.25;4972898;28;20097;-81
2022/07/06 09:43:22;;;;;;;1.50;1.40;;;;;;;24.99;37.05;98680.84;4948737;28;20127;-82
2022/07/06 09:45:54;;;;;;;1.38;1.30;;;;;;;25.01;37.60;98690.22;4945958;28;20135;-82
2022/07/06 09:48:27;;;;;;;1.50;1.40;;;;;;;25.11;38.29;98694.75;4948242;29;20491;-83
2022/07/06 09:51:06;;;;;;;1.92;1.40;;;;;;;25.29;36.57;98702.09;4939923;28;20097;-81
2022/07/06 09:53:35;;;;;;;1.10;1.10;;;;;;;25.56;36.85;98700.81;4948973;29;20047;-82
2022/07/06 09:56:04;;;;;;;1.58;1.48;;;;;;;25.59;35.22;98700.25;4946347;29;20052;-81
2022/07/06 09:58:31;;;;;;;1.20;1.10;;;;;;;25.80;35.95;98701.69;4947679;28;20110;-81
2022/07/06 10:01:29;;;;;;;2.30;1.50;;;;;;;25.92;35.71;98698.63;4946660;28;20048;-80
2022/07/06 10:03:56;;;;;;;1.63;1.42;;;;;;;26.12;35.06;98702.97;4946593;28;20050;-81
2022/07/06 10:06:25;;;;;;;1.80;1.10;;;;;;;26.20;36.46;98704.22;4943653;28;20039;-81
2022/07/06 10:09:01;;;;;;;1.48;1.30;;;;;;;25.83;36.62;98706.50;4942645;29;20039;-82
2022/07/06 10:11:39;;;;;;;1.50;1.27;;;;;;;25.45;36.04;98702.00;4945891;29;20048;-82
2022/07/06 10:14:08;;;;;;;1.38;1.27;;;;;;;25.45;35.63;98702.00;4942118;29;20118;-82
2022/07/06 10:16:38;;;;;;;3.40;1.65;;;;;;;25.06;35.97;98702.81;4948228;29;20078;-82
2022/07/06 10:19:09;;;;;;;1.40;1.30;;;;;;;24.78;36.60;98702.44;4944211;28;20044;-81
2022/07/06 10:21:39;;;;;;;2.85;1.65;;;;;;;24.86;36.54;98694.88;4944067;29;20051;-83
2022/07/06 10:24:08;;;;;;;2.22;1.60;;;;;;;25.22;36.99;98706.22;4947141;28;20047;-82
2022/07/06 10:26:36;;;;;;;2.35;1.75;;;;;;;25.28;35.66;98688.97;4935820;29;20048;-83
2022/07/06 10:29:06;;;;;;;2.05;1.50;;;;;;;25.25;36.34;98684.97;4946430;28;20373;-81
2022/07/06 10:31:38;;;;;;;1.30;1.20;;;;;;;25.04;36.53;98694.22;4945980;28;20048;-81
2022/07/06 10:34:10;;;;;;;2.05;1.48;;;;;;;24.75;38.51;98691.47;4943592;28;20062;-81
2022/07/06 10:36:43;;;;;;;1.70;1.60;;;;;;;25.16;36.79;98692.03;4942116;29;20043;-82
2022/07/06 10:41:56;;;;;;;1.92;1.60;;;;;;;25.54;36.17;98692.22;4946452;29;20047;-81
2022/07/06 10:44:26;;;;;;;2.30;1.40;;;;;;;25.93;36.66;98680.59;4944377;28;20039;-82
2022/07/06 10:46:56;;;;;;;1.43;1.20;;;;;;;25.99;35.65;98695.59;4944512;28;20079;-81
2022/07/06 10:49:25;;;;;;;1.75;1.20;;;;;;;25.57;37.13;98691.69;4947012;28;20444;-82
2022/07/06 10:52:17;;;;;;;1.15;1.02;;;;;;;25.63;36.87;98695.91;4942719;29;20051;-81
2022/07/06 10:54:43;;;;;;;1.63;1.50;;;;;;;25.44;35.94;98693.16;4941637;29;20051;-82
2022/07/06 10:57:18;;;;;;;1.33;1.20;;;;;;;25.67;37.38;98701.50;4943558;28;20129;-81
2022/07/06 11:00:03;;;;;;;1.40;1.30;;;;;;;25.88;36.75;98700.28;4945011;29;20055;-82
2022/07/06 11:02:38;;;;;;;1.42;1.33;;;;;;;25.49;35.74;98689.59;4947812;28;20167;-81
2022/07/06 11:05:12;;;;;;;3.30;1.42;;;;;;;25.31;35.59;98691.13;4942364;29;20126;-82
2022/07/06 11:07:50;;;;;;;1.38;1.27;;;;;;;25.02;36.25;98688.34;4958367;28;20058;-82
2022/07/06 11:10:17;;;;;;;1.92;1.50;;;;;;;24.92;36.07;98685.72;4944152;29;20047;-81
2022/07/06 11:12:47;;;;;;;1.65;1.50;;;;;;;25.11;35.44;98689.38;4942392;29;20123;-82
2022/07/06 11:15:48;;;;;;;1.70;1.60;;;;;;;25.37;33.37;98692.66;4944317;29;20047;-81
2022/07/06 11:18:19;;;;;;;1.27;1.23;;;;;;;25.12;35.22;98674.88;4946187;29;20043;-82
2022/07/06 11:21:34;;;;;;;1.20;1.13;;;;;;;25.52;35.69;98680.97;4946542;29;20142;-82
2022/07/06 11:24:01;;;;;;;1.40;1.30;;;;;;;25.95;36.86;98681.91;4941391;29;20051;-81
2022/07/06 11:26:29;;;;;;;2.00;1.20;;;;;;;26.23;36.59;98674.88;4936291;28;20086;-82
2022/07/06 11:29:07;;;;;;;1.85;1.30;;;;;;;26.24;36.14;98668.41;4959819;28;20047;-81
2022/07/06 11:31:36;;;;;;;1.38;1.23;;;;;;;25.79;36.00;98672.41;4947275;29;20098;-82
2022/07/06 11:34:06;;;;;;;2.13;1.15;;;;;;;25.68;36.43;98676.28;4946306;29;20059;-81
2022/07/06 11:36:34;;;;;;;2.03;1.35;;;;;;;25.42;36.99;98678.38;4947060;29;20527;-82
2022/07/06 11:39:07;;;;;;;1.40;1.30;;;;;;;25.39;37.29;98676.28;4945779;29;20063;-81
2022/07/06 11:41:35;;;;;;;1.30;1.20;;;;;;;25.30;34.87;98673.38;4940703;29;20073;-81
2022/07/06 11:44:01;;;;;;;2.13;1.30;;;;;;;24.84;36.06;98671.03;4947503;28;20086;-82
2022/07/06 11:46:32;;;;;;;1.88;1.48;;;;;;;24.75;36.95;98676.16;4945390;29;20078;-82